Pelagia — PGRQ — position and weather

sailwx.info

Track history (hours):
 
Tides and Currents Weather Stations Pressure Air Temp Water Temp Dewpoint Dewpoint Depression Visibility Wind Speed Wind Dir Waves Ship Positions

Oceanographic research ship Pelagia (Netherlands)

Detailed information on ship capabilities available from University of Delaware's Ocean Information Center and ARCUS's ALIAS (Arctic Logistics Information and Support) project.

Last reported at 2017-Jul-22 04:00 UTC. Time now 2017-Jul-22 04:43 UTC.
Position N 58°42' W 008°18'.

Length 66 m; beam 13 m.

Type: Other ship. MMSI: 244925000.

Barometer 1009.4 mb

Date/timePositionNaut miles runAvg speedWind from/ knotsBaromVisibWave heightAir tempDewpointWater temp
2017-Jul-22 04:00N 58°42' W 008°18'1413.8 1009.4
2017-Jul-22 03:00N 58°48' W 007°54'9 9.3 1009.3
2017-Jul-22 02:00N 58°48' W 007°36'9 9.3 1009.3
2017-Jul-22 01:00N 58°48' W 007°18'1212.4 1009.3
2017-Jul-22 00:00N 58°48' W 006°54'9 9.3 1009.3
2017-Jul-21 23:00N 58°48' W 006°36'1212.4 1009.3
2017-Jul-21 22:00N 58°48' W 006°12'9 9.3 1008.9
2017-Jul-21 21:00N 58°48' W 005°54'1212.4 1008.8
2017-Jul-21 20:00N 58°48' W 005°30'6 6.2 1008.3
2017-Jul-21 19:00N 58°48' W 005°18'1212.4 1008.2
2017-Jul-21 18:00N 58°48' W 004°54'6 6.2 1007.9
2017-Jul-21 17:00N 58°48' W 004°42'367.2 1007.9
2017-Jul-21 16:57N 58°45' W 004°39'4 9.6
2017-Jul-21 16:30N 58°45' W 004°31'5 9.9
2017-Jul-21 16:00N 58°45' W 004°21'3279.3
2017-Jul-21 16:00N 58°48' W 004°18'5 9.8 1007.9
2017-Jul-21 15:30N 58°45' W 004°11'510.8
2017-Jul-21 15:00N 58°45' W 004°00'3257.1
2017-Jul-21 15:00N 58°48' W 004°00'612.5 1008.8
2017-Jul-21 14:30N 58°45' W 003°50'611.3
2017-Jul-21 14:00N 58°45' W 003°39'4292.3
2017-Jul-21 14:00N 58°48' W 003°42'817.0 1008.9
2017-Jul-21 13:30N 58°45' W 003°27'816.4
2017-Jul-21 13:00N 58°42' W 003°12'2150.5 1009.6
2017-Jul-21 12:59N 58°44' W 003°12'816.4
2017-Jul-21 12:30N 58°40' W 002°60'612.5
2017-Jul-21 12:00N 58°35' W 002°53'1112.8
2017-Jul-21 12:00N 58°36' W 002°54'1413.5 1009.1
2017-Jul-21 11:00N 58°24' W 002°42'9 8.7 1008.8
2017-Jul-21 10:00N 58°18' W 002°30'1413.6 1008.4
2017-Jul-21 09:00N 58°06' W 002°18'7 6.8 1008.1
2017-Jul-21 08:00N 58°00' W 002°12'9 8.7 1008.0
2017-Jul-21 07:00N 57°54' W 002°00'1413.6 1008.0
2017-Jul-21 06:00N 57°42' W 001°48'9 8.8 1007.5
2017-Jul-21 05:00N 57°36' W 001°36'339.0 1007.0
2017-Jul-21 04:54N 57°33' W 001°34'1011.3
2017-Jul-21 04:00N 57°24' W 001°24'1413.6 1006.6
2017-Jul-21 03:00N 57°12' W 001°12'7 6.8 1006.5
2017-Jul-21 02:00N 57°06' W 001°06'1413.7 1005.9
2017-Jul-21 01:00N 56°54' W 000°54'9 8.9 1005.7
2017-Jul-21 00:00N 56°48' W 000°42'1212.4 1005.7
2017-Jul-20 23:00N 56°36' W 000°36'9 8.9 1005.5
2017-Jul-20 22:00N 56°30' W 000°24'9 8.9 1004.9
2017-Jul-20 21:00N 56°24' W 000°12'1212.5 1004.7
2017-Jul-20 20:00N 56°12' W 000°06'9 9.0 1004.2
2017-Jul-20 19:00N 56°06' E 000°06'9 9.0 1004.1
2017-Jul-20 18:00N 56°00' E 000°18'1212.5 1003.5
2017-Jul-20 17:00N 55°48' E 000°24'9 9.0 1003.9
2017-Jul-20 16:00N 55°42' E 000°36'1212.5 1003.7
2017-Jul-20 15:00N 55°30' E 000°42'9 9.1 1003.3
2017-Jul-20 14:00N 55°24' E 000°54'7 6.9 1003.0
2017-Jul-20 13:00N 55°18' E 001°00'12210.1 1002.8
2017-Jul-20 01:00N 53°36' E 002°54'9 9.3 1004.9
2017-Jul-20 00:00N 53°30' E 003°06'4010.8 1005.5
2017-Jul-19 20:17N 53°07' E 004°01'310.6
2017-Jul-19 19:59N 53°06' E 004°06'510.2
2017-Jul-19 19:30N 53°04' E 004°13'510.1
2017-Jul-19 19:00N 53°00' E 004°20'184.9
2017-Jul-19 19:00N 53°00' E 004°18'511.0 1007.0
2017-Jul-19 18:30N 52°57' E 004°26'5 9.9
2017-Jul-19 18:00N 52°54' E 004°32'2150.6
2017-Jul-19 18:00N 52°54' E 004°36'2 4.5 1007.1
2017-Jul-19 17:30N 52°55' E 004°39'611.7
2017-Jul-19 17:00N 52°59' E 004°46'2102.0
2017-Jul-19 17:00N 53°00' E 004°48'0 0.8 1006.6
2017-Jul-19 16:29N 53°00' E 004°48'0 0.9
2017-Jul-19 16:00N 53°00' E 004°48'027.2 1006.2
2017-Jul-19 15:59N 53°00' E 004°48'0 0.0
2017-Jul-19 15:29N 53°00' E 004°48'0 0.9
2017-Jul-19 15:00N 53°00' E 004°48'0 6.5 1006.5
2017-Jul-19 14:56N 53°00' E 004°48'0 0.0
2017-Jul-19 14:29N 53°00' E 004°48'0 0.9
2017-Jul-19 14:00N 53°00' E 004°48'025.8 1006.6
2017-Jul-19 13:59N 53°00' E 004°48'0 0.0
2017-Jul-19 13:28N 53°00' E 004°48'0 0.9
2017-Jul-19 13:00N 53°00' E 004°48'025.4 1007.1
2017-Jul-19 12:58N 53°00' E 004°48'0 0.0
2017-Jul-19 12:28N 53°00' E 004°48'0 0.9
2017-Jul-19 12:00N 53°00' E 004°48'025.0 1007.6
2017-Jul-19 11:58N 53°00' E 004°48'0 0.0
2017-Jul-19 11:28N 53°00' E 004°48'0 0.9
2017-Jul-19 11:00N 53°00' E 004°48'023.9 1008.0
2017-Jul-19 10:58N 53°00' E 004°48'0 0.0
2017-Jul-19 10:28N 53°00' E 004°48'0 0.9
2017-Jul-19 10:00N 53°00' E 004°48'023.5 1008.4
2017-Jul-19 09:58N 53°00' E 004°48'0 0.0
2017-Jul-19 09:25N 53°00' E 004°48'0 1.0
2017-Jul-19 09:00N 53°00' E 004°48'022.8 1009.2
2017-Jul-19 08:58N 53°00' E 004°48'0 0.0
2017-Jul-19 08:28N 53°00' E 004°48'0 0.9
2017-Jul-19 08:00N 53°00' E 004°48'022.2 1009.8
2017-Jul-19 07:58N 53°00' E 004°48'0 0.0
2017-Jul-19 07:28N 53°00' E 004°48'0 0.9
2017-Jul-19 07:00N 53°00' E 004°48'021.5 1010.2
2017-Jul-19 06:58N 53°00' E 004°48'0 0.0
2017-Jul-19 06:25N 53°00' E 004°48'0 1.0
2017-Jul-19 06:00N 53°00' E 004°48'021.2 1011.0
2017-Jul-19 05:58N 53°00' E 004°48'0 0.0
2017-Jul-19 05:28N 53°00' E 004°48'0 0.9
2017-Jul-19 05:00N 53°00' E 004°48'021.0 1011.5
2017-Jul-19 04:58N 53°00' E 004°48'0 0.0
2017-Jul-19 04:28N 53°00' E 004°48'0 0.9
2017-Jul-19 04:00N 53°00' E 004°48'020.4 1012.2
2017-Jul-19 03:58N 53°00' E 004°48'0 0.0
2017-Jul-19 03:22N 53°00' E 004°48'0 1.1
2017-Jul-19 03:00N 53°00' E 004°48'0 1.9 1012.6
2017-Jul-19 02:46N 53°00' E 004°48'0 0.0
2017-Jul-19 02:28N 53°00' E 004°48'0 0.9
2017-Jul-19 02:00N 53°00' E 004°48'0 6.0 1013.5
2017-Jul-19 01:55N 53°00' E 004°48'0 0.0
2017-Jul-19 01:28N 53°00' E 004°48'0 0.9
2017-Jul-19 01:00N 53°00' E 004°48'0 1.6 1014.4
2017-Jul-19 00:43N 53°00' E 004°48'0 0.0
2017-Jul-19 00:28N 53°00' E 004°48'0 0.9
2017-Jul-19 00:00N 53°00' E 004°48'0 3.5 1014.9
2017-Jul-18 23:52N 53°00' E 004°48'0 0.0
2017-Jul-18 23:25N 53°00' E 004°48'0 1.0
2017-Jul-18 23:00N 53°00' E 004°48'018.5 1015.5
2017-Jul-18 22:58N 53°00' E 004°48'0 0.0
2017-Jul-18 22:16N 53°00' E 004°48'0 1.6
2017-Jul-18 22:00N 53°00' E 004°48'0 3.5 1015.8
2017-Jul-18 21:52N 53°00' E 004°48'0 0.0
2017-Jul-18 21:28N 53°00' E 004°48'0 0.9
2017-Jul-18 21:00N 53°00' E 004°48'0 3.5 1016.4
2017-Jul-18 20:52N 53°00' E 004°48'0 0.0
2017-Jul-18 20:25N 53°00' E 004°48'0 1.0
2017-Jul-18 20:00N 53°00' E 004°48'017.4 1016.4
2017-Jul-18 19:58N 53°00' E 004°48'0 0.0
2017-Jul-18 19:28N 53°00' E 004°48'0 0.9
2017-Jul-18 19:00N 53°00' E 004°48'017.0 1016.8
2017-Jul-18 18:58N 53°00' E 004°48'0 0.0
2017-Jul-18 18:28N 53°00' E 004°48'0 0.9
2017-Jul-18 18:00N 53°00' E 004°48'016.9 1017.4
2017-Jul-18 17:58N 53°00' E 004°48'0 0.0
2017-Jul-18 17:28N 53°00' E 004°48'0 0.9
2017-Jul-18 17:00N 53°00' E 004°48'016.5 1017.7
2017-Jul-18 16:58N 53°00' E 004°48'0 0.0
2017-Jul-18 16:25N 53°00' E 004°48'0 1.0
2017-Jul-18 16:00N 53°00' E 004°48'016.2 1018.2
2017-Jul-18 15:58N 53°00' E 004°48'0 0.0
2017-Jul-18 15:28N 53°00' E 004°48'0 0.9
2017-Jul-18 15:00N 53°00' E 004°48'015.8 1018.5
2017-Jul-18 14:58N 53°00' E 004°48'0 0.4
2017-Jul-18 14:00N 53°00' E 004°48'015.7 1019.2
2017-Jul-18 13:58N 53°00' E 004°48'0 0.0
2017-Jul-18 13:28N 53°00' E 004°48'0 0.9
2017-Jul-18 13:00N 53°00' E 004°48'0 5.5 1020.1
2017-Jul-18 12:55N 53°00' E 004°48'0 0.0
2017-Jul-18 12:28N 53°00' E 004°48'0 0.9
2017-Jul-18 12:00N 53°00' E 004°48'0 5.5 1020.6
2017-Jul-18 11:55N 53°00' E 004°48'0 0.0
2017-Jul-18 11:25N 53°00' E 004°48'0 1.0
2017-Jul-18 11:00N 53°00' E 004°48'0 5.5 1021.4
2017-Jul-18 10:55N 53°00' E 004°48'0 0.0
2017-Jul-18 10:28N 53°00' E 004°48'0 0.9
2017-Jul-18 10:00N 53°00' E 004°48'014.6 1021.9
2017-Jul-18 09:58N 53°00' E 004°48'0 0.0
2017-Jul-18 09:28N 53°00' E 004°48'0 0.9
2017-Jul-18 09:00N 53°00' E 004°48'014.5 1022.2
2017-Jul-18 08:58N 53°00' E 004°48'0 0.0
2017-Jul-18 08:25N 53°00' E 004°48'0 1.0
2017-Jul-18 08:00N 53°00' E 004°48'014.2 1022.5
2017-Jul-18 07:58N 53°00' E 004°48'0 0.0
2017-Jul-18 07:25N 53°00' E 004°48'0 1.0
2017-Jul-18 07:00N 53°00' E 004°48'014.1 1022.4
2017-Jul-18 06:58N 53°00' E 004°48'0 0.0
2017-Jul-18 06:28N 53°00' E 004°48'0 0.9
2017-Jul-18 06:00N 53°00' E 004°48'013.8 1022.5
2017-Jul-18 05:58N 53°00' E 004°48'0 0.0
2017-Jul-18 05:28N 53°00' E 004°48'0 0.9
2017-Jul-18 05:00N 53°00' E 004°48'013.6 1022.4
2017-Jul-18 04:58N 53°00' E 004°48'0 0.0
2017-Jul-18 04:28N 53°00' E 004°48'0 0.9
2017-Jul-18 04:00N 53°00' E 004°48'0 5.3 1022.6
2017-Jul-18 03:55N 53°00' E 004°48'0 0.0
2017-Jul-18 03:25N 53°00' E 004°48'0 0.0
2017-Jul-18 02:58N 53°00' E 004°48'0 0.0
2017-Jul-18 02:28N 53°00' E 004°48'0 0.9
2017-Jul-18 02:00N 53°00' E 004°48'0 3.2 1022.6
2017-Jul-18 01:52N 53°00' E 004°48'0 0.0
2017-Jul-18 01:28N 53°00' E 004°48'0 0.0
2017-Jul-18 01:01N 53°00' E 004°48'025.8
2017-Jul-18 01:00N 53°00' E 004°48'0 0.9 1022.8
2017-Jul-18 00:30N 53°00' E 004°48'0 0.0
2017-Jul-18 00:00N 53°00' E 004°48'026.3
2017-Jul-18 00:00N 53°00' E 004°48'0 0.9 1022.9
2017-Jul-17 23:30N 53°00' E 004°48'0 0.0
2017-Jul-17 23:00N 53°00' E 004°48'027.2
2017-Jul-17 23:00N 53°00' E 004°48'0 0.9 1023.0
2017-Jul-17 22:30N 53°00' E 004°48'0 0.0
2017-Jul-17 22:00N 53°00' E 004°48'028.2
2017-Jul-17 22:00N 53°00' E 004°48'0 0.9 1023.0
2017-Jul-17 21:30N 53°00' E 004°48'0 0.8
2017-Jul-17 21:00N 53°00' E 004°48'012.2 1023.1
2017-Jul-17 20:57N 53°00' E 004°48'0 0.0
2017-Jul-17 20:30N 53°00' E 004°48'0 0.8
2017-Jul-17 20:00N 53°00' E 004°48'012.1 1023.2
2017-Jul-17 19:57N 53°00' E 004°48'0 0.0
2017-Jul-17 19:30N 53°00' E 004°48'0 0.0
2017-Jul-17 19:00N 53°00' E 004°48'031.0
2017-Jul-17 19:00N 53°00' E 004°48'0 0.9 1023.1
2017-Jul-17 18:30N 53°00' E 004°48'0 0.0
2017-Jul-17 18:00N 53°00' E 004°48'031.7
2017-Jul-17 18:00N 53°00' E 004°48'0 0.7 1023.1
2017-Jul-17 17:24N 53°00' E 004°48'0 0.0
2017-Jul-17 17:00N 53°00' E 004°48'033.0
2017-Jul-17 17:00N 53°00' E 004°48'0 0.9 1023.0
2017-Jul-17 16:30N 53°00' E 004°48'0 0.0
2017-Jul-17 16:00N 53°00' E 004°48'034.5
2017-Jul-17 16:00N 53°00' E 004°48'0 0.9 1023.2
2017-Jul-17 15:30N 53°00' E 004°48'0 0.0
2017-Jul-17 15:00N 53°00' E 004°48'035.2
2017-Jul-17 15:00N 53°00' E 004°48'0 0.8 1023.4
2017-Jul-17 14:27N 53°00' E 004°48'0 0.0
2017-Jul-17 14:00N 53°00' E 004°48'036.1
2017-Jul-17 14:00N 53°00' E 004°48'0 0.7 1023.4
2017-Jul-17 13:24N 53°00' E 004°48'0 1.0
2017-Jul-17 13:00N 53°00' E 004°48'011.2 1023.5
2017-Jul-17 12:57N 53°00' E 004°48'0 0.0
2017-Jul-17 12:30N 53°00' E 004°48'0 0.0
2017-Jul-17 12:00N 53°00' E 004°48'039.8
2017-Jul-17 12:00N 53°00' E 004°48'0 0.9 1023.6
2017-Jul-17 11:30N 53°00' E 004°48'0 0.0
2017-Jul-17 11:00N 53°00' E 004°48'041.9
2017-Jul-17 11:00N 53°00' E 004°48'0 0.9 1023.5
2017-Jul-17 10:30N 53°00' E 004°48'0 0.8
2017-Jul-17 10:00N 53°00' E 004°48'010.7 1023.4
2017-Jul-17 09:57N 53°00' E 004°48'0 0.0
2017-Jul-17 09:27N 53°00' E 004°48'0 0.0
2017-Jul-17 09:00N 53°00' E 004°48'045.6
2017-Jul-17 09:00N 53°00' E 004°48'0 0.9 1023.4
2017-Jul-17 08:30N 53°00' E 004°48'0 0.0
2017-Jul-17 08:00N 53°00' E 004°48'047.0
2017-Jul-17 08:00N 53°00' E 004°48'0 0.9 1023.5
2017-Jul-17 07:30N 53°00' E 004°48'0 0.0
2017-Jul-17 07:00N 53°00' E 004°48'050.0
2017-Jul-17 07:00N 53°00' E 004°48'0 0.8
2017-Jul-17 06:27N 53°00' E 004°48'0 0.0
2017-Jul-17 05:54N 53°00' E 004°48'0 0.0
2017-Jul-17 05:30N 53°00' E 004°48'0 0.0
2017-Jul-17 05:00N 53°00' E 004°48'0 0.0
2017-Jul-17 04:30N 53°00' E 004°48'0 0.0
2017-Jul-17 04:00N 53°00' E 004°48'0 0.0
2017-Jul-17 03:30N 53°00' E 004°48'0 0.0
2017-Jul-17 02:57N 53°00' E 004°48'0 0.0
2017-Jul-17 02:27N 53°00' E 004°48'0 0.0
2017-Jul-17 02:00N 53°00' E 004°48'0 0.0
2017-Jul-17 01:27N 53°00' E 004°48'0 0.0
2017-Jul-17 00:57N 53°00' E 004°48'0 0.0
2017-Jul-17 00:30N 53°00' E 004°48'0 0.0
2017-Jul-16 23:57N 53°00' E 004°48'0 0.0
2017-Jul-16 23:27N 53°00' E 004°48'0 0.0
2017-Jul-16 23:00N 53°00' E 004°48'0 0.0
2017-Jul-16 22:30N 53°00' E 004°48'0 0.0
2017-Jul-16 22:00N 53°00' E 004°48'0 0.0
2017-Jul-16 21:30N 53°00' E 004°48'0 0.0
2017-Jul-16 21:00N 53°00' E 004°48'0 0.0
2017-Jul-16 20:30N 53°00' E 004°48'0 0.0
2017-Jul-16 20:00N 53°00' E 004°48'0 0.0
2017-Jul-16 19:30N 53°00' E 004°48'0 0.0
2017-Jul-16 19:00N 53°00' E 004°48'0 0.0
2017-Jul-16 18:30N 53°00' E 004°48'0 0.0
2017-Jul-16 18:00N 53°00' E 004°48'0 0.0
2017-Jul-16 17:30N 53°00' E 004°48'0 0.0
2017-Jul-16 17:00N 53°00' E 004°48'0 0.0
2017-Jul-16 16:30N 53°00' E 004°48'0 0.0
2017-Jul-16 15:57N 53°00' E 004°48'0 0.0
2017-Jul-16 15:30N 53°00' E 004°48'0 0.0
2017-Jul-16 14:57N 53°00' E 004°48'0 0.0
2017-Jul-16 14:24N 53°00' E 004°48'0 0.0
2017-Jul-16 14:00N 53°00' E 004°48'0 0.0
2017-Jul-16 13:30N 53°00' E 004°48'0 0.0
2017-Jul-16 12:57N 53°00' E 004°48'0 0.0
2017-Jul-16 12:30N 53°00' E 004°48'0 0.0
2017-Jul-16 12:00N 53°00' E 004°48'0 0.0
2017-Jul-16 11:29N 53°00' E 004°48'0 0.0
2017-Jul-16 10:59N 53°00' E 004°48'0 0.0
2017-Jul-16 10:29N 53°00' E 004°48'0 0.0
2017-Jul-16 09:59N 53°00' E 004°48'0 0.0
2017-Jul-16 09:29N 53°00' E 004°48'0 0.0
2017-Jul-16 08:59N 53°00' E 004°48'0 0.0
2017-Jul-16 08:26N 53°00' E 004°48'0 0.0
2017-Jul-16 07:59N 53°00' E 004°48'0 0.0
2017-Jul-16 07:29N 53°00' E 004°48'0 0.0
2017-Jul-16 06:56N 53°00' E 004°48'0 0.0
2017-Jul-16 06:29N 53°00' E 004°48'0 0.0
2017-Jul-16 05:59N 53°00' E 004°48'0 0.0
2017-Jul-16 05:29N 53°00' E 004°48'0 0.0
2017-Jul-16 04:59N 53°00' E 004°48'0 0.0
2017-Jul-16 04:29N 53°00' E 004°48'0 0.0
2017-Jul-16 03:59N 53°00' E 004°48'0 0.0
2017-Jul-16 03:29N 53°00' E 004°48'0 0.0
2017-Jul-16 02:59N 53°00' E 004°48'0 0.0
2017-Jul-16 02:29N 53°00' E 004°48'0 0.0
2017-Jul-16 01:59N 53°00' E 004°48'0 0.0
2017-Jul-16 01:29N 53°00' E 004°48'0 0.0
2017-Jul-16 00:59N 53°00' E 004°48'0 0.0
2017-Jul-16 00:29N 53°00' E 004°48'0 0.0
2017-Jul-15 23:59N 53°00' E 004°48'0 0.0
2017-Jul-15 23:29N 53°00' E 004°48'0 0.0
2017-Jul-15 22:59N 53°00' E 004°48'0 0.0
2017-Jul-15 22:29N 53°00' E 004°48'0 0.0
2017-Jul-15 21:59N 53°00' E 004°48'0 0.0
2017-Jul-15 21:29N 53°00' E 004°48'0 0.0
2017-Jul-15 20:59N 53°00' E 004°48'0 0.0
2017-Jul-15 20:29N 53°00' E 004°48'0 0.0
2017-Jul-15 19:59N 53°00' E 004°48'0 0.0
2017-Jul-15 19:29N 53°00' E 004°48'0 0.0
2017-Jul-15 18:59N 53°00' E 004°48'0 0.0
2017-Jul-15 18:29N 53°00' E 004°48'0 0.0
2017-Jul-15 17:59N 53°00' E 004°48'0 0.0
2017-Jul-15 17:29N 53°00' E 004°48'0 0.0
2017-Jul-15 16:59N 53°00' E 004°48'0 0.0
2017-Jul-15 16:29N 53°00' E 004°48'0 0.0
2017-Jul-15 15:56N 53°00' E 004°48'0 0.0
2017-Jul-15 15:29N 53°00' E 004°48'0 0.0
2017-Jul-15 14:59N 53°00' E 004°48'0 0.0
2017-Jul-15 13:59N 53°00' E 004°48'0 0.0
2017-Jul-15 13:29N 53°00' E 004°48'0 0.0
2017-Jul-15 12:59N 53°00' E 004°48'0 0.0
2017-Jul-15 12:29N 53°00' E 004°48'0 0.0
2017-Jul-15 11:59N 53°00' E 004°48'0 0.0
2017-Jul-15 11:26N 53°00' E 004°48'0 0.0
2017-Jul-15 10:56N 53°00' E 004°48'0 0.0
2017-Jul-15 10:23N 53°00' E 004°48'0 0.0
2017-Jul-15 09:59N 53°00' E 004°48'0 0.0
2017-Jul-15 09:29N 53°00' E 004°48'0 0.0
2017-Jul-15 08:59N 53°00' E 004°48'0 0.0
2017-Jul-15 08:29N 53°00' E 004°48'0 0.0
2017-Jul-15 07:59N 53°00' E 004°48'0 0.0
2017-Jul-15 07:29N 53°00' E 004°48'0 0.0
2017-Jul-15 06:59N 53°00' E 004°48'0 0.0
2017-Jul-15 06:29N 53°00' E 004°48'0 0.0
2017-Jul-15 05:56N 53°00' E 004°48'0 0.0
2017-Jul-15 05:29N 53°00' E 004°48'0 0.0
2017-Jul-15 04:59N 53°00' E 004°48'0 0.0
2017-Jul-15 04:29N 53°00' E 004°48'0 0.0
2017-Jul-15 03:56N 53°00' E 004°48'0 0.0
2017-Jul-15 03:29N 53°00' E 004°48'0 0.0
2017-Jul-15 02:59N 53°00' E 004°48'0 0.0
2017-Jul-15 02:29N 53°00' E 004°48'0 0.0
2017-Jul-15 01:59N 53°00' E 004°48'0 0.0
2017-Jul-15 01:29N 53°00' E 004°48'0 0.0
2017-Jul-15 00:59N 53°00' E 004°48'0 0.0
2017-Jul-15 00:26N 53°00' E 004°48'0 0.0
2017-Jul-14 23:59N 53°00' E 004°48'0 0.0
2017-Jul-14 23:29N 53°00' E 004°48'0 0.0
2017-Jul-14 22:59N 53°00' E 004°48'0 0.0
2017-Jul-14 22:28N 53°00' E 004°48'0 0.0
2017-Jul-14 21:58N 53°00' E 004°48'0 0.0
2017-Jul-14 21:25N 53°00' E 004°48'0 0.0
2017-Jul-14 20:58N 53°00' E 004°48'0 0.0
2017-Jul-14 20:28N 53°00' E 004°48'0 0.0
2017-Jul-14 19:58N 53°00' E 004°48'0 0.0
2017-Jul-14 19:25N 53°00' E 004°48'0 0.0
2017-Jul-14 18:58N 53°00' E 004°48'0 0.0
2017-Jul-14 18:28N 53°00' E 004°48'0 0.0
2017-Jul-14 17:58N 53°00' E 004°48'0 0.0
2017-Jul-14 17:28N 53°00' E 004°48'0 0.0
2017-Jul-14 16:52N 53°00' E 004°48'0 0.0
2017-Jul-14 16:28N 53°00' E 004°48'0 0.0
2017-Jul-14 15:58N 53°00' E 004°48'0 0.0
2017-Jul-14 15:28N 53°00' E 004°48'0 0.0
2017-Jul-14 14:58N 53°00' E 004°48'0 0.0
2017-Jul-14 14:28N 53°00' E 004°48'0 0.0
2017-Jul-14 13:58N 53°00' E 004°48'0 0.0
2017-Jul-14 13:28N 53°00' E 004°48'0 0.0
2017-Jul-14 12:58N 53°00' E 004°48'0 0.0
2017-Jul-14 12:28N 53°00' E 004°48'0 0.0
2017-Jul-14 11:58N 53°00' E 004°48'0 0.0
2017-Jul-14 11:28N 53°00' E 004°48'0 0.0
2017-Jul-14 10:58N 53°00' E 004°48'0 0.0
2017-Jul-14 10:28N 53°00' E 004°48'0 0.0
2017-Jul-14 09:58N 53°00' E 004°48'0 0.0
2017-Jul-14 09:25N 53°00' E 004°48'0 0.0
2017-Jul-14 08:58N 53°00' E 004°48'0 0.0
2017-Jul-14 08:28N 53°00' E 004°48'0 0.0
2017-Jul-14 07:58N 53°00' E 004°48'0 0.0
2017-Jul-14 07:28N 53°00' E 004°48'0 0.0
2017-Jul-14 06:55N 53°00' E 004°48'0 0.0
2017-Jul-14 06:28N 53°00' E 004°48'0 0.0
2017-Jul-14 05:58N 53°00' E 004°48'0 0.0
2017-Jul-14 05:28N 53°00' E 004°48'0 0.0
2017-Jul-14 04:58N 53°00' E 004°48'0 0.0
2017-Jul-14 04:28N 53°00' E 004°48'0 0.0
2017-Jul-14 03:55N 53°00' E 004°48'0 0.0
2017-Jul-14 03:28N 53°00' E 004°48'0 0.0
2017-Jul-14 02:58N 53°00' E 004°48'0 0.0
2017-Jul-14 02:28N 53°00' E 004°48'0 0.0
2017-Jul-14 01:58N 53°00' E 004°48'0 0.0
2017-Jul-14 01:28N 53°00' E 004°48'0 0.0
2017-Jul-14 00:58N 53°00' E 004°48'0 0.0
2017-Jul-14 00:28N 53°00' E 004°48'0 0.0
2017-Jul-13 23:58N 53°00' E 004°48'0 0.0
2017-Jul-13 23:25N 53°00' E 004°48'0 0.0
2017-Jul-13 22:58N 53°00' E 004°48'0 0.0
2017-Jul-13 22:28N 53°00' E 004°48'0 0.0
2017-Jul-13 21:58N 53°00' E 004°48'0 0.0
2017-Jul-13 21:25N 53°00' E 004°48'0 0.0
2017-Jul-13 20:55N 53°00' E 004°48'0 0.0
2017-Jul-13 20:28N 53°00' E 004°48'0 0.0
2017-Jul-13 19:58N 53°00' E 004°48'0 0.0
2017-Jul-13 19:28N 53°00' E 004°48'0 0.0
2017-Jul-13 18:58N 53°00' E 004°48'0 0.0
2017-Jul-13 18:28N 53°00' E 004°48'0 0.0
2017-Jul-13 17:58N 53°00' E 004°48'0 0.0
2017-Jul-13 17:28N 53°00' E 004°48'0 0.0
2017-Jul-13 16:58N 53°00' E 004°48'0 0.0
2017-Jul-13 16:28N 53°00' E 004°48'0 0.0
2017-Jul-13 15:55N 53°00' E 004°48'0 0.0
2017-Jul-13 15:28N 53°00' E 004°48'0 0.0
2017-Jul-13 14:58N 53°00' E 004°48'0 0.0
2017-Jul-13 14:28N 53°00' E 004°48'0 0.0
2017-Jul-13 13:58N 53°00' E 004°48'0 0.0
2017-Jul-13 13:28N 53°00' E 004°48'0 0.0
2017-Jul-13 12:58N 53°00' E 004°48'0 0.0
2017-Jul-13 12:28N 53°00' E 004°48'0 0.0
2017-Jul-13 11:58N 53°00' E 004°48'0 0.0
2017-Jul-13 11:28N 53°00' E 004°48'0 0.0
2017-Jul-13 10:58N 53°00' E 004°48'0 0.0
2017-Jul-13 10:31N 53°00' E 004°48'0 0.0
2017-Jul-13 10:01N 53°00' E 004°48'0 0.0
2017-Jul-13 09:30N 53°00' E 004°48'0 0.0
2017-Jul-13 09:00N 53°00' E 004°48'0 0.1
2017-Jul-13 08:27N 53°00' E 004°48'0 0.0
2017-Jul-13 07:57N 53°00' E 004°48'0 0.0
2017-Jul-13 07:27N 53°00' E 004°48'0 0.0
2017-Jul-13 07:00N 53°00' E 004°48'0 0.0
2017-Jul-13 06:27N 53°00' E 004°48'0 0.0
2017-Jul-13 06:00N 53°00' E 004°48'0 0.0
2017-Jul-13 05:30N 53°00' E 004°48'0 0.0
2017-Jul-13 05:00N 53°00' E 004°48'0 0.0
2017-Jul-13 04:27N 53°00' E 004°48'0 0.0
2017-Jul-13 04:00N 53°00' E 004°48'0 0.0
2017-Jul-13 03:30N 53°00' E 004°48'0 0.0
2017-Jul-13 03:00N 53°00' E 004°48'0 0.0
2017-Jul-13 02:30N 53°00' E 004°48'0 0.0
2017-Jul-13 02:00N 53°00' E 004°48'0 0.0
2017-Jul-13 01:30N 53°00' E 004°48'0 0.0
2017-Jul-13 01:00N 53°00' E 004°48'0 0.0
2017-Jul-13 00:27N 53°00' E 004°48'0 0.0
2017-Jul-13 00:00N 53°00' E 004°48'0 0.0
2017-Jul-12 23:30N 53°00' E 004°48'0 0.0
2017-Jul-12 23:00N 53°00' E 004°48'0 0.0
2017-Jul-12 22:30N 53°00' E 004°48'0 0.0
2017-Jul-12 22:00N 53°00' E 004°48'0 0.0
2017-Jul-12 21:30N 53°00' E 004°48'0 0.0
2017-Jul-12 21:00N 53°00' E 004°48'0 0.0
2017-Jul-12 20:30N 53°00' E 004°48'0 0.0
2017-Jul-12 20:00N 53°00' E 004°48'0 0.0
2017-Jul-12 19:30N 53°00' E 004°48'0 0.0
2017-Jul-12 19:00N 53°00' E 004°48'0 0.0
2017-Jul-12 18:30N 53°00' E 004°48'0 0.0
2017-Jul-12 18:00N 53°00' E 004°48'0 0.0
2017-Jul-12 17:30N 53°00' E 004°48'0 0.0
2017-Jul-12 17:00N 53°00' E 004°48'0 0.0
2017-Jul-12 16:27N 53°00' E 004°48'0 0.0
2017-Jul-12 16:00N 53°00' E 004°48'0 0.0
2017-Jul-12 15:30N 53°00' E 004°48'0 0.0
2017-Jul-12 15:00N 53°00' E 004°48'0 0.0
2017-Jul-12 14:00N 53°00' E 004°48'0 0.0
2017-Jul-12 13:30N 53°00' E 004°48'0 0.0
2017-Jul-12 13:00N 53°00' E 004°48'0 0.0
2017-Jul-12 12:27N 53°00' E 004°48'0 0.0
2017-Jul-12 12:00N 53°00' E 004°48'0 0.0
2017-Jul-12 11:30N 53°00' E 004°48'0 0.0
2017-Jul-12 11:00N 53°00' E 004°48'0 0.0
2017-Jul-12 10:30N 53°00' E 004°48'0 0.0
2017-Jul-12 10:00N 53°00' E 004°48'0 0.0
2017-Jul-12 09:30N 53°00' E 004°48'0 0.0
2017-Jul-12 08:57N 53°00' E 004°48'0 0.0
2017-Jul-12 08:30N 53°00' E 004°48'0 0.0
2017-Jul-12 08:00N 53°00' E 004°48'0 0.0
2017-Jul-12 07:30N 53°00' E 004°48'0 0.0
2017-Jul-12 07:00N 53°00' E 004°48'0 0.0
2017-Jul-12 06:27N 53°00' E 004°48'0 0.0
2017-Jul-12 06:00N 53°00' E 004°48'0 0.0
2017-Jul-12 05:30N 53°00' E 004°48'0 0.0
2017-Jul-12 05:00N 53°00' E 004°48'0 0.0
2017-Jul-12 04:30N 53°00' E 004°48'0 0.0
2017-Jul-12 04:00N 53°00' E 004°48'  
Track history (hours):
 
Tides and Currents Weather Stations Pressure Air Temp Water Temp Dewpoint Dewpoint Depression Visibility Wind Speed Wind Dir Waves Ship Positions

Oceanographic research ship Pelagia (Netherlands)

Detailed information on ship capabilities available from University of Delaware's Ocean Information Center and ARCUS's ALIAS (Arctic Logistics Information and Support) project.

Last reported at 2017-Jul-22 04:00 UTC. Time now 2017-Jul-22 04:43 UTC.
Position N 58°42' W 008°18'.

Length 66 m; beam 13 m.

Type: Other ship. MMSI: 244925000.

Barometer 1009.4 mb

Date/timePositionNaut miles runAvg speedWind from/ knotsBaromVisibWave heightAir tempDewpointWater temp
2017-Jul-22 04:00N 58°42' W 008°18'1413.8 1009.4
2017-Jul-22 03:00N 58°48' W 007°54'9 9.3 1009.3
2017-Jul-22 02:00N 58°48' W 007°36'9 9.3 1009.3
2017-Jul-22 01:00N 58°48' W 007°18'1212.4 1009.3
2017-Jul-22 00:00N 58°48' W 006°54'9 9.3 1009.3
2017-Jul-21 23:00N 58°48' W 006°36'1212.4 1009.3
2017-Jul-21 22:00N 58°48' W 006°12'9 9.3 1008.9
2017-Jul-21 21:00N 58°48' W 005°54'1212.4 1008.8
2017-Jul-21 20:00N 58°48' W 005°30'6 6.2 1008.3
2017-Jul-21 19:00N 58°48' W 005°18'1212.4 1008.2
2017-Jul-21 18:00N 58°48' W 004°54'6 6.2 1007.9
2017-Jul-21 17:00N 58°48' W 004°42'367.2 1007.9
2017-Jul-21 16:57N 58°45' W 004°39'4 9.6
2017-Jul-21 16:30N 58°45' W 004°31'5 9.9
2017-Jul-21 16:00N 58°45' W 004°21'3279.3
2017-Jul-21 16:00N 58°48' W 004°18'5 9.8 1007.9
2017-Jul-21 15:30N 58°45' W 004°11'510.8
2017-Jul-21 15:00N 58°45' W 004°00'3257.1
2017-Jul-21 15:00N 58°48' W 004°00'612.5 1008.8
2017-Jul-21 14:30N 58°45' W 003°50'611.3
2017-Jul-21 14:00N 58°45' W 003°39'4292.3
2017-Jul-21 14:00N 58°48' W 003°42'817.0 1008.9
2017-Jul-21 13:30N 58°45' W 003°27'816.4
2017-Jul-21 13:00N 58°42' W 003°12'2150.5 1009.6
2017-Jul-21 12:59N 58°44' W 003°12'816.4
2017-Jul-21 12:30N 58°40' W 002°60'612.5
2017-Jul-21 12:00N 58°35' W 002°53'1112.8
2017-Jul-21 12:00N 58°36' W 002°54'1413.5 1009.1
2017-Jul-21 11:00N 58°24' W 002°42'9 8.7 1008.8
2017-Jul-21 10:00N 58°18' W 002°30'1413.6 1008.4
2017-Jul-21 09:00N 58°06' W 002°18'7 6.8 1008.1
2017-Jul-21 08:00N 58°00' W 002°12'9 8.7 1008.0
2017-Jul-21 07:00N 57°54' W 002°00'1413.6 1008.0
2017-Jul-21 06:00N 57°42' W 001°48'9 8.8 1007.5
2017-Jul-21 05:00N 57°36' W 001°36'339.0 1007.0
2017-Jul-21 04:54N 57°33' W 001°34'1011.3
2017-Jul-21 04:00N 57°24' W 001°24'1413.6 1006.6
2017-Jul-21 03:00N 57°12' W 001°12'7 6.8 1006.5
2017-Jul-21 02:00N 57°06' W 001°06'1413.7 1005.9
2017-Jul-21 01:00N 56°54' W 000°54'9 8.9 1005.7
2017-Jul-21 00:00N 56°48' W 000°42'1212.4 1005.7
2017-Jul-20 23:00N 56°36' W 000°36'9 8.9 1005.5
2017-Jul-20 22:00N 56°30' W 000°24'9 8.9 1004.9
2017-Jul-20 21:00N 56°24' W 000°12'1212.5 1004.7
2017-Jul-20 20:00N 56°12' W 000°06'9 9.0 1004.2
2017-Jul-20 19:00N 56°06' E 000°06'9 9.0 1004.1
2017-Jul-20 18:00N 56°00' E 000°18'1212.5 1003.5
2017-Jul-20 17:00N 55°48' E 000°24'9 9.0 1003.9
2017-Jul-20 16:00N 55°42' E 000°36'1212.5 1003.7
2017-Jul-20 15:00N 55°30' E 000°42'9 9.1 1003.3
2017-Jul-20 14:00N 55°24' E 000°54'7 6.9 1003.0
2017-Jul-20 13:00N 55°18' E 001°00'12210.1 1002.8
2017-Jul-20 01:00N 53°36' E 002°54'9 9.3 1004.9
2017-Jul-20 00:00N 53°30' E 003°06'4010.8 1005.5
2017-Jul-19 20:17N 53°07' E 004°01'310.6
2017-Jul-19 19:59N 53°06' E 004°06'510.2
2017-Jul-19 19:30N 53°04' E 004°13'510.1
2017-Jul-19 19:00N 53°00' E 004°20'184.9
2017-Jul-19 19:00N 53°00' E 004°18'511.0 1007.0
2017-Jul-19 18:30N 52°57' E 004°26'5 9.9
2017-Jul-19 18:00N 52°54' E 004°32'2150.6
2017-Jul-19 18:00N 52°54' E 004°36'2 4.5 1007.1
2017-Jul-19 17:30N 52°55' E 004°39'611.7
2017-Jul-19 17:00N 52°59' E 004°46'2102.0
2017-Jul-19 17:00N 53°00' E 004°48'0 0.8 1006.6
2017-Jul-19 16:29N 53°00' E 004°48'0 0.9
2017-Jul-19 16:00N 53°00' E 004°48'027.2 1006.2
2017-Jul-19 15:59N 53°00' E 004°48'0 0.0
2017-Jul-19 15:29N 53°00' E 004°48'0 0.9
2017-Jul-19 15:00N 53°00' E 004°48'0 6.5 1006.5
2017-Jul-19 14:56N 53°00' E 004°48'0 0.0
2017-Jul-19 14:29N 53°00' E 004°48'0 0.9
2017-Jul-19 14:00N 53°00' E 004°48'025.8 1006.6
2017-Jul-19 13:59N 53°00' E 004°48'0 0.0
2017-Jul-19 13:28N 53°00' E 004°48'0 0.9
2017-Jul-19 13:00N 53°00' E 004°48'025.4 1007.1
2017-Jul-19 12:58N 53°00' E 004°48'0 0.0
2017-Jul-19 12:28N 53°00' E 004°48'0 0.9
2017-Jul-19 12:00N 53°00' E 004°48'025.0 1007.6
2017-Jul-19 11:58N 53°00' E 004°48'0 0.0
2017-Jul-19 11:28N 53°00' E 004°48'0 0.9
2017-Jul-19 11:00N 53°00' E 004°48'023.9 1008.0
2017-Jul-19 10:58N 53°00' E 004°48'0 0.0
2017-Jul-19 10:28N 53°00' E 004°48'0 0.9
2017-Jul-19 10:00N 53°00' E 004°48'023.5 1008.4
2017-Jul-19 09:58N 53°00' E 004°48'0 0.0
2017-Jul-19 09:25N 53°00' E 004°48'0 1.0
2017-Jul-19 09:00N 53°00' E 004°48'022.8 1009.2
2017-Jul-19 08:58N 53°00' E 004°48'0 0.0
2017-Jul-19 08:28N 53°00' E 004°48'0 0.9
2017-Jul-19 08:00N 53°00' E 004°48'022.2 1009.8
2017-Jul-19 07:58N 53°00' E 004°48'0 0.0
2017-Jul-19 07:28N 53°00' E 004°48'0 0.9
2017-Jul-19 07:00N 53°00' E 004°48'021.5 1010.2
2017-Jul-19 06:58N 53°00' E 004°48'0 0.0
2017-Jul-19 06:25N 53°00' E 004°48'0 1.0
2017-Jul-19 06:00N 53°00' E 004°48'021.2 1011.0
2017-Jul-19 05:58N 53°00' E 004°48'0 0.0
2017-Jul-19 05:28N 53°00' E 004°48'0 0.9
2017-Jul-19 05:00N 53°00' E 004°48'021.0 1011.5
2017-Jul-19 04:58N 53°00' E 004°48'0 0.0
2017-Jul-19 04:28N 53°00' E 004°48'0 0.9
2017-Jul-19 04:00N 53°00' E 004°48'020.4 1012.2
2017-Jul-19 03:58N 53°00' E 004°48'0 0.0
2017-Jul-19 03:22N 53°00' E 004°48'0 1.1
2017-Jul-19 03:00N 53°00' E 004°48'0 1.9 1012.6
2017-Jul-19 02:46N 53°00' E 004°48'0 0.0
2017-Jul-19 02:28N 53°00' E 004°48'0 0.9
2017-Jul-19 02:00N 53°00' E 004°48'0 6.0 1013.5
2017-Jul-19 01:55N 53°00' E 004°48'0 0.0
2017-Jul-19 01:28N 53°00' E 004°48'0 0.9
2017-Jul-19 01:00N 53°00' E 004°48'0 1.6 1014.4
2017-Jul-19 00:43N 53°00' E 004°48'0 0.0
2017-Jul-19 00:28N 53°00' E 004°48'0 0.9
2017-Jul-19 00:00N 53°00' E 004°48'0 3.5 1014.9
2017-Jul-18 23:52N 53°00' E 004°48'0 0.0
2017-Jul-18 23:25N 53°00' E 004°48'0 1.0
2017-Jul-18 23:00N 53°00' E 004°48'018.5 1015.5
2017-Jul-18 22:58N 53°00' E 004°48'0 0.0
2017-Jul-18 22:16N 53°00' E 004°48'0 1.6
2017-Jul-18 22:00N 53°00' E 004°48'0 3.5 1015.8
2017-Jul-18 21:52N 53°00' E 004°48'0 0.0
2017-Jul-18 21:28N 53°00' E 004°48'0 0.9
2017-Jul-18 21:00N 53°00' E 004°48'0 3.5 1016.4
2017-Jul-18 20:52N 53°00' E 004°48'0 0.0
2017-Jul-18 20:25N 53°00' E 004°48'0 1.0
2017-Jul-18 20:00N 53°00' E 004°48'017.4 1016.4
2017-Jul-18 19:58N 53°00' E 004°48'0 0.0
2017-Jul-18 19:28N 53°00' E 004°48'0 0.9
2017-Jul-18 19:00N 53°00' E 004°48'017.0 1016.8
2017-Jul-18 18:58N 53°00' E 004°48'0 0.0
2017-Jul-18 18:28N 53°00' E 004°48'0 0.9
2017-Jul-18 18:00N 53°00' E 004°48'016.9 1017.4
2017-Jul-18 17:58N 53°00' E 004°48'0 0.0
2017-Jul-18 17:28N 53°00' E 004°48'0 0.9
2017-Jul-18 17:00N 53°00' E 004°48'016.5 1017.7
2017-Jul-18 16:58N 53°00' E 004°48'0 0.0
2017-Jul-18 16:25N 53°00' E 004°48'0 1.0
2017-Jul-18 16:00N 53°00' E 004°48'016.2 1018.2
2017-Jul-18 15:58N 53°00' E 004°48'0 0.0
2017-Jul-18 15:28N 53°00' E 004°48'0 0.9
2017-Jul-18 15:00N 53°00' E 004°48'015.8 1018.5
2017-Jul-18 14:58N 53°00' E 004°48'0 0.4
2017-Jul-18 14:00N 53°00' E 004°48'015.7 1019.2
2017-Jul-18 13:58N 53°00' E 004°48'0 0.0
2017-Jul-18 13:28N 53°00' E 004°48'0 0.9
2017-Jul-18 13:00N 53°00' E 004°48'0 5.5 1020.1
2017-Jul-18 12:55N 53°00' E 004°48'0 0.0
2017-Jul-18 12:28N 53°00' E 004°48'0 0.9
2017-Jul-18 12:00N 53°00' E 004°48'0 5.5 1020.6
2017-Jul-18 11:55N 53°00' E 004°48'0 0.0
2017-Jul-18 11:25N 53°00' E 004°48'0 1.0
2017-Jul-18 11:00N 53°00' E 004°48'0 5.5 1021.4
2017-Jul-18 10:55N 53°00' E 004°48'0 0.0
2017-Jul-18 10:28N 53°00' E 004°48'0 0.9
2017-Jul-18 10:00N 53°00' E 004°48'014.6 1021.9
2017-Jul-18 09:58N 53°00' E 004°48'0 0.0
2017-Jul-18 09:28N 53°00' E 004°48'0 0.9
2017-Jul-18 09:00N 53°00' E 004°48'014.5 1022.2
2017-Jul-18 08:58N 53°00' E 004°48'0 0.0
2017-Jul-18 08:25N 53°00' E 004°48'0 1.0
2017-Jul-18 08:00N 53°00' E 004°48'014.2 1022.5
2017-Jul-18 07:58N 53°00' E 004°48'0 0.0
2017-Jul-18 07:25N 53°00' E 004°48'0 1.0
2017-Jul-18 07:00N 53°00' E 004°48'014.1 1022.4
2017-Jul-18 06:58N 53°00' E 004°48'0 0.0
2017-Jul-18 06:28N 53°00' E 004°48'0 0.9
2017-Jul-18 06:00N 53°00' E 004°48'013.8 1022.5
2017-Jul-18 05:58N 53°00' E 004°48'0 0.0
2017-Jul-18 05:28N 53°00' E 004°48'0 0.9
2017-Jul-18 05:00N 53°00' E 004°48'013.6 1022.4
2017-Jul-18 04:58N 53°00' E 004°48'0 0.0
2017-Jul-18 04:28N 53°00' E 004°48'0 0.9
2017-Jul-18 04:00N 53°00' E 004°48'0 5.3 1022.6
2017-Jul-18 03:55N 53°00' E 004°48'0 0.0
2017-Jul-18 03:25N 53°00' E 004°48'0 0.0
2017-Jul-18 02:58N 53°00' E 004°48'0 0.0
2017-Jul-18 02:28N 53°00' E 004°48'0 0.9
2017-Jul-18 02:00N 53°00' E 004°48'0 3.2 1022.6
2017-Jul-18 01:52N 53°00' E 004°48'0 0.0
2017-Jul-18 01:28N 53°00' E 004°48'0 0.0
2017-Jul-18 01:01N 53°00' E 004°48'025.8
2017-Jul-18 01:00N 53°00' E 004°48'0 0.9 1022.8
2017-Jul-18 00:30N 53°00' E 004°48'0 0.0
2017-Jul-18 00:00N 53°00' E 004°48'026.3
2017-Jul-18 00:00N 53°00' E 004°48'0 0.9 1022.9
2017-Jul-17 23:30N 53°00' E 004°48'0 0.0
2017-Jul-17 23:00N 53°00' E 004°48'027.2
2017-Jul-17 23:00N 53°00' E 004°48'0 0.9 1023.0
2017-Jul-17 22:30N 53°00' E 004°48'0 0.0
2017-Jul-17 22:00N 53°00' E 004°48'028.2
2017-Jul-17 22:00N 53°00' E 004°48'0 0.9 1023.0
2017-Jul-17 21:30N 53°00' E 004°48'0 0.8
2017-Jul-17 21:00N 53°00' E 004°48'012.2 1023.1
2017-Jul-17 20:57N 53°00' E 004°48'0 0.0
2017-Jul-17 20:30N 53°00' E 004°48'0 0.8
2017-Jul-17 20:00N 53°00' E 004°48'012.1 1023.2
2017-Jul-17 19:57N 53°00' E 004°48'0 0.0
2017-Jul-17 19:30N 53°00' E 004°48'0 0.0
2017-Jul-17 19:00N 53°00' E 004°48'031.0
2017-Jul-17 19:00N 53°00' E 004°48'0 0.9 1023.1
2017-Jul-17 18:30N 53°00' E 004°48'0 0.0
2017-Jul-17 18:00N 53°00' E 004°48'031.7
2017-Jul-17 18:00N 53°00' E 004°48'0 0.7 1023.1
2017-Jul-17 17:24N 53°00' E 004°48'0 0.0
2017-Jul-17 17:00N 53°00' E 004°48'033.0
2017-Jul-17 17:00N 53°00' E 004°48'0 0.9 1023.0
2017-Jul-17 16:30N 53°00' E 004°48'0 0.0
2017-Jul-17 16:00N 53°00' E 004°48'034.5
2017-Jul-17 16:00N 53°00' E 004°48'0 0.9 1023.2
2017-Jul-17 15:30N 53°00' E 004°48'0 0.0
2017-Jul-17 15:00N 53°00' E 004°48'035.2
2017-Jul-17 15:00N 53°00' E 004°48'0 0.8 1023.4
2017-Jul-17 14:27N 53°00' E 004°48'0 0.0
2017-Jul-17 14:00N 53°00' E 004°48'036.1
2017-Jul-17 14:00N 53°00' E 004°48'0 0.7 1023.4
2017-Jul-17 13:24N 53°00' E 004°48'0 1.0
2017-Jul-17 13:00N 53°00' E 004°48'011.2 1023.5
2017-Jul-17 12:57N 53°00' E 004°48'0 0.0
2017-Jul-17 12:30N 53°00' E 004°48'0 0.0
2017-Jul-17 12:00N 53°00' E 004°48'039.8
2017-Jul-17 12:00N 53°00' E 004°48'0 0.9 1023.6
2017-Jul-17 11:30N 53°00' E 004°48'0 0.0
2017-Jul-17 11:00N 53°00' E 004°48'041.9
2017-Jul-17 11:00N 53°00' E 004°48'0 0.9 1023.5
2017-Jul-17 10:30N 53°00' E 004°48'0 0.8
2017-Jul-17 10:00N 53°00' E 004°48'010.7 1023.4
2017-Jul-17 09:57N 53°00' E 004°48'0 0.0
2017-Jul-17 09:27N 53°00' E 004°48'0 0.0
2017-Jul-17 09:00N 53°00' E 004°48'045.6
2017-Jul-17 09:00N 53°00' E 004°48'0 0.9 1023.4
2017-Jul-17 08:30N 53°00' E 004°48'0 0.0
2017-Jul-17 08:00N 53°00' E 004°48'047.0
2017-Jul-17 08:00N 53°00' E 004°48'0 0.9 1023.5
2017-Jul-17 07:30N 53°00' E 004°48'0 0.0
2017-Jul-17 07:00N 53°00' E 004°48'050.0
2017-Jul-17 07:00N 53°00' E 004°48'0 0.8
2017-Jul-17 06:27N 53°00' E 004°48'0 0.0
2017-Jul-17 05:54N 53°00' E 004°48'0 0.0
2017-Jul-17 05:30N 53°00' E 004°48'0 0.0
2017-Jul-17 05:00N 53°00' E 004°48'0 0.0
2017-Jul-17 04:30N 53°00' E 004°48'0 0.0
2017-Jul-17 04:00N 53°00' E 004°48'0 0.0
2017-Jul-17 03:30N 53°00' E 004°48'0 0.0
2017-Jul-17 02:57N 53°00' E 004°48'0 0.0
2017-Jul-17 02:27N 53°00' E 004°48'0 0.0
2017-Jul-17 02:00N 53°00' E 004°48'0 0.0
2017-Jul-17 01:27N 53°00' E 004°48'0 0.0
2017-Jul-17 00:57N 53°00' E 004°48'0 0.0
2017-Jul-17 00:30N 53°00' E 004°48'0 0.0
2017-Jul-16 23:57N 53°00' E 004°48'0 0.0
2017-Jul-16 23:27N 53°00' E 004°48'0 0.0
2017-Jul-16 23:00N 53°00' E 004°48'0 0.0
2017-Jul-16 22:30N 53°00' E 004°48'0 0.0
2017-Jul-16 22:00N 53°00' E 004°48'0 0.0
2017-Jul-16 21:30N 53°00' E 004°48'0 0.0
2017-Jul-16 21:00N 53°00' E 004°48'0 0.0
2017-Jul-16 20:30N 53°00' E 004°48'0 0.0
2017-Jul-16 20:00N 53°00' E 004°48'0 0.0
2017-Jul-16 19:30N 53°00' E 004°48'0 0.0
2017-Jul-16 19:00N 53°00' E 004°48'0 0.0
2017-Jul-16 18:30N 53°00' E 004°48'0 0.0
2017-Jul-16 18:00N 53°00' E 004°48'0 0.0
2017-Jul-16 17:30N 53°00' E 004°48'0 0.0
2017-Jul-16 17:00N 53°00' E 004°48'0 0.0
2017-Jul-16 16:30N 53°00' E 004°48'0 0.0
2017-Jul-16 15:57N 53°00' E 004°48'0 0.0
2017-Jul-16 15:30N 53°00' E 004°48'0 0.0
2017-Jul-16 14:57N 53°00' E 004°48'0 0.0
2017-Jul-16 14:24N 53°00' E 004°48'0 0.0
2017-Jul-16 14:00N 53°00' E 004°48'0 0.0
2017-Jul-16 13:30N 53°00' E 004°48'0 0.0
2017-Jul-16 12:57N 53°00' E 004°48'0 0.0
2017-Jul-16 12:30N 53°00' E 004°48'0 0.0
2017-Jul-16 12:00N 53°00' E 004°48'0 0.0
2017-Jul-16 11:29N 53°00' E 004°48'0 0.0
2017-Jul-16 10:59N 53°00' E 004°48'0 0.0
2017-Jul-16 10:29N 53°00' E 004°48'0 0.0
2017-Jul-16 09:59N 53°00' E 004°48'0 0.0
2017-Jul-16 09:29N 53°00' E 004°48'0 0.0
2017-Jul-16 08:59N 53°00' E 004°48'0 0.0
2017-Jul-16 08:26N 53°00' E 004°48'0 0.0
2017-Jul-16 07:59N 53°00' E 004°48'0 0.0
2017-Jul-16 07:29N 53°00' E 004°48'0 0.0
2017-Jul-16 06:56N 53°00' E 004°48'0 0.0
2017-Jul-16 06:29N 53°00' E 004°48'0 0.0
2017-Jul-16 05:59N 53°00' E 004°48'0 0.0
2017-Jul-16 05:29N 53°00' E 004°48'0 0.0
2017-Jul-16 04:59N 53°00' E 004°48'0 0.0
2017-Jul-16 04:29N 53°00' E 004°48'0 0.0
2017-Jul-16 03:59N 53°00' E 004°48'0 0.0
2017-Jul-16 03:29N 53°00' E 004°48'0 0.0
2017-Jul-16 02:59N 53°00' E 004°48'0 0.0
2017-Jul-16 02:29N 53°00' E 004°48'0 0.0
2017-Jul-16 01:59N 53°00' E 004°48'0 0.0
2017-Jul-16 01:29N 53°00' E 004°48'0 0.0
2017-Jul-16 00:59N 53°00' E 004°48'0 0.0
2017-Jul-16 00:29N 53°00' E 004°48'0 0.0
2017-Jul-15 23:59N 53°00' E 004°48'0 0.0
2017-Jul-15 23:29N 53°00' E 004°48'0 0.0
2017-Jul-15 22:59N 53°00' E 004°48'0 0.0
2017-Jul-15 22:29N 53°00' E 004°48'0 0.0
2017-Jul-15 21:59N 53°00' E 004°48'0 0.0
2017-Jul-15 21:29N 53°00' E 004°48'0 0.0
2017-Jul-15 20:59N 53°00' E 004°48'0 0.0
2017-Jul-15 20:29N 53°00' E 004°48'0 0.0
2017-Jul-15 19:59N 53°00' E 004°48'0 0.0
2017-Jul-15 19:29N 53°00' E 004°48'0 0.0
2017-Jul-15 18:59N 53°00' E 004°48'0 0.0
2017-Jul-15 18:29N 53°00' E 004°48'0 0.0
2017-Jul-15 17:59N 53°00' E 004°48'0 0.0
2017-Jul-15 17:29N 53°00' E 004°48'0 0.0
2017-Jul-15 16:59N 53°00' E 004°48'0 0.0
2017-Jul-15 16:29N 53°00' E 004°48'0 0.0
2017-Jul-15 15:56N 53°00' E 004°48'0 0.0
2017-Jul-15 15:29N 53°00' E 004°48'0 0.0
2017-Jul-15 14:59N 53°00' E 004°48'0 0.0
2017-Jul-15 13:59N 53°00' E 004°48'0 0.0
2017-Jul-15 13:29N 53°00' E 004°48'0 0.0
2017-Jul-15 12:59N 53°00' E 004°48'0 0.0
2017-Jul-15 12:29N 53°00' E 004°48'0 0.0
2017-Jul-15 11:59N 53°00' E 004°48'0 0.0
2017-Jul-15 11:26N 53°00' E 004°48'0 0.0
2017-Jul-15 10:56N 53°00' E 004°48'0 0.0
2017-Jul-15 10:23N 53°00' E 004°48'0 0.0
2017-Jul-15 09:59N 53°00' E 004°48'0 0.0
2017-Jul-15 09:29N 53°00' E 004°48'0 0.0
2017-Jul-15 08:59N 53°00' E 004°48'0 0.0
2017-Jul-15 08:29N 53°00' E 004°48'0 0.0
2017-Jul-15 07:59N 53°00' E 004°48'0 0.0
2017-Jul-15 07:29N 53°00' E 004°48'0 0.0
2017-Jul-15 06:59N 53°00' E 004°48'0 0.0
2017-Jul-15 06:29N 53°00' E 004°48'0 0.0
2017-Jul-15 05:56N 53°00' E 004°48'0 0.0
2017-Jul-15 05:29N 53°00' E 004°48'0 0.0
2017-Jul-15 04:59N 53°00' E 004°48'0 0.0
2017-Jul-15 04:29N 53°00' E 004°48'0 0.0
2017-Jul-15 03:56N 53°00' E 004°48'0 0.0
2017-Jul-15 03:29N 53°00' E 004°48'0 0.0
2017-Jul-15 02:59N 53°00' E 004°48'0 0.0
2017-Jul-15 02:29N 53°00' E 004°48'0 0.0
2017-Jul-15 01:59N 53°00' E 004°48'0 0.0
2017-Jul-15 01:29N 53°00' E 004°48'0 0.0
2017-Jul-15 00:59N 53°00' E 004°48'0 0.0
2017-Jul-15 00:26N 53°00' E 004°48'0 0.0
2017-Jul-14 23:59N 53°00' E 004°48'0 0.0
2017-Jul-14 23:29N 53°00' E 004°48'0 0.0
2017-Jul-14 22:59N 53°00' E 004°48'0 0.0
2017-Jul-14 22:28N 53°00' E 004°48'0 0.0
2017-Jul-14 21:58N 53°00' E 004°48'0 0.0
2017-Jul-14 21:25N 53°00' E 004°48'0 0.0
2017-Jul-14 20:58N 53°00' E 004°48'0 0.0
2017-Jul-14 20:28N 53°00' E 004°48'0 0.0
2017-Jul-14 19:58N 53°00' E 004°48'0 0.0
2017-Jul-14 19:25N 53°00' E 004°48'0 0.0
2017-Jul-14 18:58N 53°00' E 004°48'0 0.0
2017-Jul-14 18:28N 53°00' E 004°48'0 0.0
2017-Jul-14 17:58N 53°00' E 004°48'0 0.0
2017-Jul-14 17:28N 53°00' E 004°48'0 0.0
2017-Jul-14 16:52N 53°00' E 004°48'0 0.0
2017-Jul-14 16:28N 53°00' E 004°48'0 0.0
2017-Jul-14 15:58N 53°00' E 004°48'0 0.0
2017-Jul-14 15:28N 53°00' E 004°48'0 0.0
2017-Jul-14 14:58N 53°00' E 004°48'0 0.0
2017-Jul-14 14:28N 53°00' E 004°48'0 0.0
2017-Jul-14 13:58N 53°00' E 004°48'0 0.0
2017-Jul-14 13:28N 53°00' E 004°48'0 0.0
2017-Jul-14 12:58N 53°00' E 004°48'0 0.0
2017-Jul-14 12:28N 53°00' E 004°48'0 0.0
2017-Jul-14 11:58N 53°00' E 004°48'0 0.0
2017-Jul-14 11:28N 53°00' E 004°48'0 0.0
2017-Jul-14 10:58N 53°00' E 004°48'0 0.0
2017-Jul-14 10:28N 53°00' E 004°48'0 0.0
2017-Jul-14 09:58N 53°00' E 004°48'0 0.0
2017-Jul-14 09:25N 53°00' E 004°48'0 0.0
2017-Jul-14 08:58N 53°00' E 004°48'0 0.0
2017-Jul-14 08:28N 53°00' E 004°48'0 0.0
2017-Jul-14 07:58N 53°00' E 004°48'0 0.0
2017-Jul-14 07:28N 53°00' E 004°48'0 0.0
2017-Jul-14 06:55N 53°00' E 004°48'0 0.0
2017-Jul-14 06:28N 53°00' E 004°48'0 0.0
2017-Jul-14 05:58N 53°00' E 004°48'0 0.0
2017-Jul-14 05:28N 53°00' E 004°48'0 0.0
2017-Jul-14 04:58N 53°00' E 004°48'0 0.0
2017-Jul-14 04:28N 53°00' E 004°48'0 0.0
2017-Jul-14 03:55N 53°00' E 004°48'0 0.0
2017-Jul-14 03:28N 53°00' E 004°48'0 0.0
2017-Jul-14 02:58N 53°00' E 004°48'0 0.0
2017-Jul-14 02:28N 53°00' E 004°48'0 0.0
2017-Jul-14 01:58N 53°00' E 004°48'0 0.0
2017-Jul-14 01:28N 53°00' E 004°48'0 0.0
2017-Jul-14 00:58N 53°00' E 004°48'0 0.0
2017-Jul-14 00:28N 53°00' E 004°48'0 0.0
2017-Jul-13 23:58N 53°00' E 004°48'0 0.0
2017-Jul-13 23:25N 53°00' E 004°48'0 0.0
2017-Jul-13 22:58N 53°00' E 004°48'0 0.0
2017-Jul-13 22:28N 53°00' E 004°48'0 0.0
2017-Jul-13 21:58N 53°00' E 004°48'0 0.0
2017-Jul-13 21:25N 53°00' E 004°48'0 0.0
2017-Jul-13 20:55N 53°00' E 004°48'0 0.0
2017-Jul-13 20:28N 53°00' E 004°48'0 0.0
2017-Jul-13 19:58N 53°00' E 004°48'0 0.0
2017-Jul-13 19:28N 53°00' E 004°48'0 0.0
2017-Jul-13 18:58N 53°00' E 004°48'0 0.0
2017-Jul-13 18:28N 53°00' E 004°48'0 0.0
2017-Jul-13 17:58N 53°00' E 004°48'0 0.0
2017-Jul-13 17:28N 53°00' E 004°48'0 0.0
2017-Jul-13 16:58N 53°00' E 004°48'0 0.0
2017-Jul-13 16:28N 53°00' E 004°48'0 0.0
2017-Jul-13 15:55N 53°00' E 004°48'0 0.0
2017-Jul-13 15:28N 53°00' E 004°48'0 0.0
2017-Jul-13 14:58N 53°00' E 004°48'0 0.0
2017-Jul-13 14:28N 53°00' E 004°48'0 0.0
2017-Jul-13 13:58N 53°00' E 004°48'0 0.0
2017-Jul-13 13:28N 53°00' E 004°48'0 0.0
2017-Jul-13 12:58N 53°00' E 004°48'0 0.0
2017-Jul-13 12:28N 53°00' E 004°48'0 0.0
2017-Jul-13 11:58N 53°00' E 004°48'0 0.0
2017-Jul-13 11:28N 53°00' E 004°48'0 0.0
2017-Jul-13 10:58N 53°00' E 004°48'0 0.0
2017-Jul-13 10:31N 53°00' E 004°48'0 0.0
2017-Jul-13 10:01N 53°00' E 004°48'0 0.0
2017-Jul-13 09:30N 53°00' E 004°48'0 0.0
2017-Jul-13 09:00N 53°00' E 004°48'0 0.1
2017-Jul-13 08:27N 53°00' E 004°48'0 0.0
2017-Jul-13 07:57N 53°00' E 004°48'0 0.0
2017-Jul-13 07:27N 53°00' E 004°48'0 0.0
2017-Jul-13 07:00N 53°00' E 004°48'0 0.0
2017-Jul-13 06:27N 53°00' E 004°48'0 0.0
2017-Jul-13 06:00N 53°00' E 004°48'0 0.0
2017-Jul-13 05:30N 53°00' E 004°48'0 0.0
2017-Jul-13 05:00N 53°00' E 004°48'0 0.0
2017-Jul-13 04:27N 53°00' E 004°48'0 0.0
2017-Jul-13 04:00N 53°00' E 004°48'0 0.0
2017-Jul-13 03:30N 53°00' E 004°48'0 0.0
2017-Jul-13 03:00N 53°00' E 004°48'0 0.0
2017-Jul-13 02:30N 53°00' E 004°48'0 0.0
2017-Jul-13 02:00N 53°00' E 004°48'0 0.0
2017-Jul-13 01:30N 53°00' E 004°48'0 0.0
2017-Jul-13 01:00N 53°00' E 004°48'0 0.0
2017-Jul-13 00:27N 53°00' E 004°48'0 0.0
2017-Jul-13 00:00N 53°00' E 004°48'0 0.0
2017-Jul-12 23:30N 53°00' E 004°48'0 0.0
2017-Jul-12 23:00N 53°00' E 004°48'0 0.0
2017-Jul-12 22:30N 53°00' E 004°48'0 0.0
2017-Jul-12 22:00N 53°00' E 004°48'0 0.0
2017-Jul-12 21:30N 53°00' E 004°48'0 0.0
2017-Jul-12 21:00N 53°00' E 004°48'0 0.0
2017-Jul-12 20:30N 53°00' E 004°48'0 0.0
2017-Jul-12 20:00N 53°00' E 004°48'0 0.0
2017-Jul-12 19:30N 53°00' E 004°48'0 0.0
2017-Jul-12 19:00N 53°00' E 004°48'0 0.0
2017-Jul-12 18:30N 53°00' E 004°48'0 0.0
2017-Jul-12 18:00N 53°00' E 004°48'0 0.0
2017-Jul-12 17:30N 53°00' E 004°48'0 0.0
2017-Jul-12 17:00N 53°00' E 004°48'0 0.0
2017-Jul-12 16:27N 53°00' E 004°48'0 0.0
2017-Jul-12 16:00N 53°00' E 004°48'0 0.0
2017-Jul-12 15:30N 53°00' E 004°48'0 0.0
2017-Jul-12 15:00N 53°00' E 004°48'0 0.0
2017-Jul-12 14:00N 53°00' E 004°48'0 0.0
2017-Jul-12 13:30N 53°00' E 004°48'0 0.0
2017-Jul-12 13:00N 53°00' E 004°48'0 0.0
2017-Jul-12 12:27N 53°00' E 004°48'0 0.0
2017-Jul-12 12:00N 53°00' E 004°48'0 0.0
2017-Jul-12 11:30N 53°00' E 004°48'0 0.0
2017-Jul-12 11:00N 53°00' E 004°48'0 0.0
2017-Jul-12 10:30N 53°00' E 004°48'0 0.0
2017-Jul-12 10:00N 53°00' E 004°48'0 0.0
2017-Jul-12 09:30N 53°00' E 004°48'0 0.0
2017-Jul-12 08:57N 53°00' E 004°48'0 0.0
2017-Jul-12 08:30N 53°00' E 004°48'0 0.0
2017-Jul-12 08:00N 53°00' E 004°48'0 0.0
2017-Jul-12 07:30N 53°00' E 004°48'0 0.0
2017-Jul-12 07:00N 53°00' E 004°48'0 0.0
2017-Jul-12 06:27N 53°00' E 004°48'0 0.0
2017-Jul-12 06:00N 53°00' E 004°48'0 0.0
2017-Jul-12 05:30N 53°00' E 004°48'0 0.0
2017-Jul-12 05:00N 53°00' E 004°48'0 0.0
2017-Jul-12 04:30N 53°00' E 004°48'0 0.0
2017-Jul-12 04:00N 53°00' E 004°48'  

Dump ship's entire track history